sensor_id;sensor_type;location;lat;lon;timestamp;pressure;altitude;pressure_sealevel;temperature;humidity
70206;BME280;57593;55.896;37.396;2023-02-01T00:00:00;98044.97;;;2.83;100.00
70206;BME280;57593;55.896;37.396;2023-02-01T00:00:31;98041.44;;;2.88;100.00
70206;BME280;57593;55.896;37.396;2023-02-01T00:01:07;98047.44;;;2.88;100.00
70206;BME280;57593;55.896;37.396;2023-02-01T00:01:38;98041.47;;;2.79;100.00
70206;BME280;57593;55.896;37.396;2023-02-01T00:02:09;98046.66;;;2.88;100.00
70206;BME280;57593;55.896;37.396;2023-02-01T00:02:39;98049.88;;;2.85;100.00
70206;BME280;57593;55.896;37.396;2023-02-01T00:03:11;98049.59;;;2.78;100.00
70206;BME280;57593;55.896;37.396;2023-02-01T00:03:43;98049.75;;;2.81;100.00
70206;BME280;57593;55.896;37.396;2023-02-01T00:04:14;98043.59;;;2.86;100.00
70206;BME280;57593;55.896;37.396;2023-02-01T00:04:44;98049.13;;;2.84;100.00
70206;BME280;57593;55.896;37.396;2023-02-01T00:05:15;98048.19;;;2.80;100.00
70206;BME280;57593;55.896;37.396;2023-02-01T00:05:55;98052.03;;;2.74;100.00
70206;BME280;57593;55.896;37.396;2023-02-01T00:06:26;98057.59;;;2.64;100.00
70206;BME280;57593;55.896;37.396;2023-02-01T00:06:57;98051.47;;;2.68;100.00
70206;BME280;57593;55.896;37.396;2023-02-01T00:07:27;98044.38;;;2.69;100.00
70206;BME280;57593;55.896;37.396;2023-02-01T00:07:58;98046.84;;;2.57;100.00
70206;BME280;57593;55.896;37.396;2023-02-01T00:08:28;98044.84;;;2.71;100.00
70206;BME280;57593;55.896;37.396;2023-02-01T00:08:59;98048.69;;;2.65;100.00
70206;BME280;57593;55.896;37.396;2023-02-01T00:09:30;98054.22;;;2.55;100.00
70206;BME280;57593;55.896;37.396;2023-02-01T00:10:01;98051.00;;;2.58;100.00
70206;BME280;57593;55.896;37.396;2023-02-01T00:10:32;98047.03;;;2.60;100.00
70206;BME280;57593;55.896;37.396;2023-02-01T00:11:07;98046.69;;;2.70;100.00
70206;BME280;57593;55.896;37.396;2023-02-01T00:11:38;98041.34;;;2.67;100.00
70206;BME280;57593;55.896;37.396;2023-02-01T00:12:09;98041.66;;;2.65;100.00
70206;BME280;57593;55.896;37.396;2023-02-01T00:12:39;98041.78;;;2.69;100.00
70206;BME280;57593;55.896;37.396;2023-02-01T00:13:10;98048.53;;;2.70;100.00
70206;BME280;57593;55.896;37.396;2023-02-01T00:13:41;98046.22;;;2.77;100.00
70206;BME280;57593;55.896;37.396;2023-02-01T00:14:12;98038.13;;;2.70;100.00
70206;BME280;57593;55.896;37.396;2023-02-01T00:14:43;98042.09;;;2.76;100.00
70206;BME280;57593;55.896;37.396;2023-02-01T00:15:14;98044.38;;;2.78;100.00
70206;BME280;57593;55.896;37.396;2023-02-01T00:15:45;98044.69;;;2.76;100.00
70206;BME280;57593;55.896;37.396;2023-02-01T00:16:48;98038.56;;;2.81;100.00
70206;BME280;57593;55.896;37.396;2023-02-01T00:17:18;98032.84;;;2.79;100.00
70206;BME280;57593;55.896;37.396;2023-02-01T00:17:55;98038.88;;;2.79;100.00
70206;BME280;57593;55.896;37.396;2023-02-01T00:18:26;98036.72;;;2.73;100.00
70206;BME280;57593;55.896;37.396;2023-02-01T00:19:09;98033.66;;;2.70;100.00
70206;BME280;57593;55.896;37.396;2023-02-01T00:19:40;98037.94;;;2.75;100.00
70206;BME280;57593;55.896;37.396;2023-02-01T00:20:11;98034.59;;;2.66;100.00
70206;BME280;57593;55.896;37.396;2023-02-01T00:20:45;98042.41;;;2.66;100.00
70206;BME280;57593;55.896;37.396;2023-02-01T00:21:20;98038.72;;;2.67;100.00
70206;BME280;57593;55.896;37.396;2023-02-01T00:21:50;98041.47;;;2.70;100.00
70206;BME280;57593;55.896;37.396;2023-02-01T00:22:21;98037.81;;;2.63;100.00
70206;BME280;57593;55.896;37.396;2023-02-01T00:22:52;98035.50;;;2.61;100.00
70206;BME280;57593;55.896;37.396;2023-02-01T00:23:22;98044.88;;;2.62;100.00
70206;BME280;57593;55.896;37.396;2023-02-01T00:23:53;98040.25;;;2.68;100.00
70206;BME280;57593;55.896;37.396;2023-02-01T00:24:23;98035.03;;;2.68;100.00
70206;BME280;57593;55.896;37.396;2023-02-01T00:24:54;98035.94;;;2.72;100.00
70206;BME280;57593;55.896;37.396;2023-02-01T00:25:25;98034.56;;;2.75;100.00
70206;BME280;57593;55.896;37.396;2023-02-01T00:26:00;98041.47;;;2.79;100.00
70206;BME280;57593;55.896;37.396;2023-02-01T00:27:01;98029.50;;;2.78;100.00
70206;BME280;57593;55.896;37.396;2023-02-01T00:27:32;98029.34;;;2.75;100.00
70206;BME280;57593;55.896;37.396;2023-02-01T00:28:02;98030.25;;;2.79;100.00
70206;BME280;57593;55.896;37.396;2023-02-01T00:28:33;98030.44;;;2.74;100.00
70206;BME280;57593;55.896;37.396;2023-02-01T00:29:16;98038.56;;;2.81;100.00
70206;BME280;57593;55.896;37.396;2023-02-01T00:29:47;98039.75;;;2.83;100.00
70206;BME280;57593;55.896;37.396;2023-02-01T00:30:18;98037.75;;;2.80;100.00
70206;BME280;57593;55.896;37.396;2023-02-01T00:30:56;98041.31;;;2.76;100.00
70206;BME280;57593;55.896;37.396;2023-02-01T00:31:27;98035.19;;;2.72;100.00
70206;BME280;57593;55.896;37.396;2023-02-01T00:31:58;98038.38;;;2.77;100.00
70206;BME280;57593;55.896;37.396;2023-02-01T00:32:28;98035.34;;;2.66;100.00
70206;BME280;57593;55.896;37.396;2023-02-01T00:32:59;98045.16;;;2.69;100.00
70206;BME280;57593;55.896;37.396;2023-02-01T00:33:31;98045.94;;;2.61;100.00
70206;BME280;57593;55.896;37.396;2023-02-01T00:34:02;98037.06;;;2.54;100.00
70206;BME280;57593;55.896;37.396;2023-02-01T00:34:33;98039.06;;;2.48;100.00
70206;BME280;57593;55.896;37.396;2023-02-01T00:35:04;98042.56;;;2.52;100.00
70206;BME280;57593;55.896;37.396;2023-02-01T00:35:35;98041.81;;;2.51;100.00
70206;BME280;57593;55.896;37.396;2023-02-01T00:36:08;98042.44;;;2.57;100.00
70206;BME280;57593;55.896;37.396;2023-02-01T00:36:39;98047.47;;;2.54;100.00
70206;BME280;57593;55.896;37.396;2023-02-01T00:37:11;98045.19;;;2.61;100.00
70206;BME280;57593;55.896;37.396;2023-02-01T00:37:41;98048.22;;;2.63;100.00
70206;BME280;57593;55.896;37.396;2023-02-01T00:38:12;98046.72;;;2.62;100.00
70206;BME280;57593;55.896;37.396;2023-02-01T00:38:43;98046.06;;;2.65;100.00
70206;BME280;57593;55.896;37.396;2023-02-01T00:39:14;98051.59;;;2.81;100.00
70206;BME280;57593;55.896;37.396;2023-02-01T00:39:45;98048.97;;;2.81;100.00
70206;BME280;57593;55.896;37.396;2023-02-01T00:40:15;98039.31;;;2.73;100.00
70206;BME280;57593;55.896;37.396;2023-02-01T00:40:46;98045.94;;;2.61;100.00
70206;BME280;57593;55.896;37.396;2023-02-01T00:41:19;98043.81;;;2.55;100.00
70206;BME280;57593;55.896;37.396;2023-02-01T00:41:50;98040.72;;;2.61;100.00
70206;BME280;57593;55.896;37.396;2023-02-01T00:42:21;98048.88;;;2.51;100.00
70206;BME280;57593;55.896;37.396;2023-02-01T00:42:51;98047.66;;;2.57;100.00
70206;BME280;57593;55.896;37.396;2023-02-01T00:43:22;98047.16;;;2.64;100.00
70206;BME280;57593;55.896;37.396;2023-02-01T00:43:53;98046.41;;;2.63;100.00
70206;BME280;57593;55.896;37.396;2023-02-01T00:44:23;98034.44;;;2.62;100.00
70206;BME280;57593;55.896;37.396;2023-02-01T00:44:54;98050.84;;;2.63;100.00
70206;BME280;57593;55.896;37.396;2023-02-01T00:45:25;98047.16;;;2.64;100.00
70206;BME280;57593;55.896;37.396;2023-02-01T00:45:55;98043.31;;;2.61;100.00
70206;BME280;57593;55.896;37.396;2023-02-01T00:46:26;98040.84;;;2.65;100.00
70206;BME280;57593;55.896;37.396;2023-02-01T00:46:57;98044.84;;;2.71;100.00
70206;BME280;57593;55.896;37.396;2023-02-01T00:47:27;98047.03;;;2.60;100.00
70206;BME280;57593;55.896;37.396;2023-02-01T00:47:59;98046.84;;;2.57;100.00
70206;BME280;57593;55.896;37.396;2023-02-01T00:48:30;98035.19;;;2.63;100.00
70206;BME280;57593;55.896;37.396;2023-02-01T00:49:01;98042.25;;;2.54;100.00
70206;BME280;57593;55.896;37.396;2023-02-01T00:49:32;98040.09;;;2.64;100.00
70206;BME280;57593;55.896;37.396;2023-02-01T00:50:03;98042.56;;;2.61;100.00
70206;BME280;57593;55.896;37.396;2023-02-01T00:50:33;98039.81;;;2.57;100.00
70206;BME280;57593;55.896;37.396;2023-02-01T00:51:11;98040.59;;;2.49;100.00
70206;BME280;57593;55.896;37.396;2023-02-01T00:51:42;98047.03;;;2.43;100.00
70206;BME280;57593;55.896;37.396;2023-02-01T00:52:12;98042.59;;;2.43;100.00
70206;BME280;57593;55.896;37.396;2023-02-01T00:52:43;98051.31;;;2.47;100.00
70206;BME280;57593;55.896;37.396;2023-02-01T00:53:13;98043.03;;;2.54;100.00
70206;BME280;57593;55.896;37.396;2023-02-01T00:53:44;98041.66;;;2.39;100.00
70206;BME280;57593;55.896;37.396;2023-02-01T00:54:15;98044.41;;;2.51;100.00
70206;BME280;57593;55.896;37.396;2023-02-01T00:54:46;98044.59;;;2.46;100.00
70206;BME280;57593;55.896;37.396;2023-02-01T00:55:16;98041.81;;;2.51;100.00
70206;BME280;57593;55.896;37.396;2023-02-01T00:55:47;98041.50;;;2.53;100.00
70206;BME280;57593;55.896;37.396;2023-02-01T00:56:19;98036.44;;;2.57;100.00
70206;BME280;57593;55.896;37.396;2023-02-01T00:56:49;98041.50;;;2.62;100.00
70206;BME280;57593;55.896;37.396;2023-02-01T00:57:22;98044.13;;;2.62;100.00
70206;BME280;57593;55.896;37.396;2023-02-01T00:57:53;98045.34;;;2.56;100.00
70206;BME280;57593;55.896;37.396;2023-02-01T00:58:24;98045.47;;;2.50;100.00
70206;BME280;57593;55.896;37.396;2023-02-01T00:58:56;98044.25;;;2.57;100.00
70206;BME280;57593;55.896;37.396;2023-02-01T00:59:26;98043.19;;;2.49;100.00
70206;BME280;57593;55.896;37.396;2023-02-01T00:59:57;98041.34;;;2.58;100.00
70206;BME280;57593;55.896;37.396;2023-02-01T01:00:27;98046.84;;;2.57;100.00
70206;BME280;57593;55.896;37.396;2023-02-01T01:01:03;98045.97;;;2.53;100.00
70206;BME280;57593;55.896;37.396;2023-02-01T01:01:34;98046.72;;;2.53;100.00
70206;BME280;57593;55.896;37.396;2023-02-01T01:02:05;98041.97;;;2.55;100.00
70206;BME280;57593;55.896;37.396;2023-02-01T01:02:35;98050.25;;;2.48;100.00
70206;BME280;57593;55.896;37.396;2023-02-01T01:03:07;98046.41;;;2.55;100.00
70206;BME280;57593;55.896;37.396;2023-02-01T01:03:48;98041.81;;;2.51;100.00
70206;BME280;57593;55.896;37.396;2023-02-01T01:04:21;98037.84;;;2.45;100.00
70206;BME280;57593;55.896;37.396;2023-02-01T01:04:53;98040.59;;;2.49;100.00
70206;BME280;57593;55.896;37.396;2023-02-01T01:05:24;98039.69;;;2.45;100.00
70206;BME280;57593;55.896;37.396;2023-02-01T01:05:57;98041.19;;;2.55;100.00
70206;BME280;57593;55.896;37.396;2023-02-01T01:06:29;98044.13;;;2.53;100.00
70206;BME280;57593;55.896;37.396;2023-02-01T01:07:00;98050.38;;;2.52;100.00
70206;BME280;57593;55.896;37.396;2023-02-01T01:07:31;98042.88;;;2.50;100.00
70206;BME280;57593;55.896;37.396;2023-02-01T01:08:02;98047.03;;;2.51;100.00
70206;BME280;57593;55.896;37.396;2023-02-01T01:08:33;98037.81;;;2.63;100.00
70206;BME280;57593;55.896;37.396;2023-02-01T01:09:06;98046.25;;;2.60;100.00
70206;BME280;57593;55.896;37.396;2023-02-01T01:09:37;98035.53;;;2.53;100.00
70206;BME280;57593;55.896;37.396;2023-02-01T01:10:08;98035.38;;;2.49;100.00
70206;BME280;57593;55.896;37.396;2023-02-01T01:10:39;98040.75;;;2.44;100.00
70206;BME280;57593;55.896;37.396;2023-02-01T01:11:13;98042.44;;;2.48;100.00
70206;BME280;57593;55.896;37.396;2023-02-01T01:11:44;98039.22;;;2.51;100.00
70206;BME280;57593;55.896;37.396;2023-02-01T01:12:15;98046.84;;;2.57;100.00
70206;BME280;57593;55.896;37.396;2023-02-01T01:12:45;98042.75;;;2.47;100.00
70206;BME280;57593;55.896;37.396;2023-02-01T01:13:16;98051.47;;;2.60;100.00
70206;BME280;57593;55.896;37.396;2023-02-01T01:13:48;98056.66;;;2.60;100.00
70206;BME280;57593;55.896;37.396;2023-02-01T01:14:19;98043.66;;;2.51;100.00
70206;BME280;57593;55.896;37.396;2023-02-01T01:14:50;98054.22;;;2.55;100.00
70206;BME280;57593;55.896;37.396;2023-02-01T01:15:20;98052.81;;;2.66;100.00
70206;BME280;57593;55.896;37.396;2023-02-01T01:15:51;98047.03;;;2.60;100.00
70206;BME280;57593;55.896;37.396;2023-02-01T01:16:23;98052.56;;;2.59;100.00
70206;BME280;57593;55.896;37.396;2023-02-01T01:16:54;98056.84;;;2.63;100.00
70206;BME280;57593;55.896;37.396;2023-02-01T01:17:25;98049.00;;;2.72;100.00
70206;BME280;57593;55.896;37.396;2023-02-01T01:17:56;98051.47;;;2.68;100.00
70206;BME280;57593;55.896;37.396;2023-02-01T01:18:26;98054.34;;;2.76;100.00
70206;BME280;57593;55.896;37.396;2023-02-01T01:18:57;98049.28;;;2.79;100.00
70206;BME280;57593;55.896;37.396;2023-02-01T01:19:28;98062.66;;;2.60;100.00
70206;BME280;57593;55.896;37.396;2023-02-01T01:19:59;98054.50;;;2.70;100.00
70206;BME280;57593;55.896;37.396;2023-02-01T01:20:29;98053.75;;;2.61;100.00
70206;BME280;57593;55.896;37.396;2023-02-01T01:21:01;98057.16;;;2.62;100.00
70206;BME280;57593;55.896;37.396;2023-02-01T01:21:32;98055.78;;;2.56;100.00
70206;BME280;57593;55.896;37.396;2023-02-01T01:22:03;98054.84;;;2.60;100.00
70206;BME280;57593;55.896;37.396;2023-02-01T01:22:33;98054.53;;;2.62;100.00
70206;BME280;57593;55.896;37.396;2023-02-01T01:23:05;98053.91;;;2.65;100.00
70206;BME280;57593;55.896;37.396;2023-02-01T01:23:36;98058.38;;;2.56;100.00
70206;BME280;57593;55.896;37.396;2023-02-01T01:24:07;98055.16;;;2.50;100.00
70206;BME280;57593;55.896;37.396;2023-02-01T01:24:37;98047.47;;;2.54;100.00
70206;BME280;57593;55.896;37.396;2023-02-01T01:25:08;98054.22;;;2.46;100.00
70206;BME280;57593;55.896;37.396;2023-02-01T01:25:39;98055.63;;;2.43;100.00
70206;BME280;57593;55.896;37.396;2023-02-01T01:26:16;98056.06;;;2.45;100.00
70206;BME280;57593;55.896;37.396;2023-02-01T01:26:47;98064.97;;;2.53;100.00
70206;BME280;57593;55.896;37.396;2023-02-01T01:27:18;98062.66;;;2.60;100.00
70206;BME280;57593;55.896;37.396;2023-02-01T01:27:53;98057.91;;;2.62;100.00
70206;BME280;57593;55.896;37.396;2023-02-01T01:28:23;98060.97;;;2.56;100.00
70206;BME280;57593;55.896;37.396;2023-02-01T01:28:58;98060.97;;;2.56;100.00
70206;BME280;57593;55.896;37.396;2023-02-01T01:29:29;98064.19;;;2.61;100.00
70206;BME280;57593;55.896;37.396;2023-02-01T01:30:00;98068.19;;;2.59;100.00
70206;BME280;57593;55.896;37.396;2023-02-01T01:30:31;98062.50;;;2.65;100.00
70206;BME280;57593;55.896;37.396;2023-02-01T01:31:02;98046.38;;;2.72;100.00
70206;BME280;57593;55.896;37.396;2023-02-01T01:31:33;98050.97;;;2.75;100.00
70206;BME280;57593;55.896;37.396;2023-02-01T01:32:04;98064.31;;;2.74;100.00
70206;BME280;57593;55.896;37.396;2023-02-01T01:32:34;98061.25;;;2.72;100.00
70206;BME280;57593;55.896;37.396;2023-02-01T01:33:05;98052.97;;;2.78;100.00
70206;BME280;57593;55.896;37.396;2023-02-01T01:33:36;98056.63;;;2.77;100.00
70206;BME280;57593;55.896;37.396;2023-02-01T01:34:08;98063.88;;;2.72;100.00
70206;BME280;57593;55.896;37.396;2023-02-01T01:34:38;98060.34;;;2.67;100.00
70206;BME280;57593;55.896;37.396;2023-02-01T01:35:10;98065.88;;;2.66;100.00
70206;BME280;57593;55.896;37.396;2023-02-01T01:35:41;98058.66;;;2.72;100.00
70206;BME280;57593;55.896;37.396;2023-02-01T01:36:12;98051.63;;;2.55;100.00
70206;BME280;57593;55.896;37.396;2023-02-01T01:36:43;98054.69;;;2.65;100.00
70206;BME280;57593;55.896;37.396;2023-02-01T01:37:13;98054.66;;;2.74;100.00
70206;BME280;57593;55.896;37.396;2023-02-01T01:37:44;98063.72;;;2.68;100.00
70206;BME280;57593;55.896;37.396;2023-02-01T01:38:15;98066.34;;;2.59;100.00
70206;BME280;57593;55.896;37.396;2023-02-01T01:38:46;98063.56;;;2.64;100.00
70206;BME280;57593;55.896;37.396;2023-02-01T01:39:16;98064.31;;;2.65;100.00
70206;BME280;57593;55.896;37.396;2023-02-01T01:39:47;98068.91;;;2.68;100.00
70206;BME280;57593;55.896;37.396;2023-02-01T01:40:18;98067.41;;;2.67;100.00
70206;BME280;57593;55.896;37.396;2023-02-01T01:40:48;98062.81;;;2.64;100.00
70206;BME280;57593;55.896;37.396;2023-02-01T01:41:24;98065.09;;;2.65;100.00
70206;BME280;57593;55.896;37.396;2023-02-01T01:41:56;98057.28;;;2.57;100.00
70206;BME280;57593;55.896;37.396;2023-02-01T01:42:30;98052.53;;;2.50;100.00
70206;BME280;57593;55.896;37.396;2023-02-01T01:43:00;98055.94;;;2.42;100.00
70206;BME280;57593;55.896;37.396;2023-02-01T01:44:04;98060.69;;;2.48;100.00
70206;BME280;57593;55.896;37.396;2023-02-01T01:45:33;98066.94;;;2.47;100.00
70206;BME280;57593;55.896;37.396;2023-02-01T01:46:04;98066.50;;;2.54;100.00
70206;BME280;57593;55.896;37.396;2023-02-01T01:46:37;98070.78;;;2.59;100.00
70206;BME280;57593;55.896;37.396;2023-02-01T01:47:09;98060.19;;;2.64;100.00
70206;BME280;57593;55.896;37.396;2023-02-01T01:47:44;98056.97;;;2.67;100.00
70206;BME280;57593;55.896;37.396;2023-02-01T01:48:29;98069.22;;;2.66;100.00
70206;BME280;57593;55.896;37.396;2023-02-01T01:49:10;98063.72;;;2.68;100.00
70206;BME280;57593;55.896;37.396;2023-02-01T01:49:43;98055.88;;;2.68;100.00
70206;BME280;57593;55.896;37.396;2023-02-01T01:50:17;98059.59;;;2.67;100.00
70206;BME280;57593;55.896;37.396;2023-02-01T01:51:03;98052.81;;;2.75;100.00
70206;BME280;57593;55.896;37.396;2023-02-01T01:51:41;98062.63;;;2.69;100.00
70206;BME280;57593;55.896;37.396;2023-02-01T01:52:12;98055.44;;;2.66;100.00
70206;BME280;57593;55.896;37.396;2023-02-01T01:52:48;98062.47;;;2.74;100.00
70206;BME280;57593;55.896;37.396;2023-02-01T01:53:25;98062.94;;;2.67;100.00
70206;BME280;57593;55.896;37.396;2023-02-01T01:54:02;98062.81;;;2.64;100.00
70206;BME280;57593;55.896;37.396;2023-02-01T01:54:38;98064.97;;;2.62;100.00
70206;BME280;57593;55.896;37.396;2023-02-01T01:55:10;98063.59;;;2.56;100.00
70206;BME280;57593;55.896;37.396;2023-02-01T01:55:42;98061.28;;;2.54;100.00
70206;BME280;57593;55.896;37.396;2023-02-01T01:56:14;98058.81;;;2.58;100.00
70206;BME280;57593;55.896;37.396;2023-02-01T01:56:50;98062.34;;;2.62;100.00
70206;BME280;57593;55.896;37.396;2023-02-01T01:57:31;98068.19;;;2.59;100.00
70206;BME280;57593;55.896;37.396;2023-02-01T01:58:06;98060.06;;;2.51;100.00
70206;BME280;57593;55.896;37.396;2023-02-01T01:58:38;98054.69;;;2.65;100.00
70206;BME280;57593;55.896;37.396;2023-02-01T01:59:09;98062.81;;;2.64;100.00
70206;BME280;57593;55.896;37.396;2023-02-01T01:59:42;98054.38;;;2.58;100.00
70206;BME280;57593;55.896;37.396;2023-02-01T02:00:17;98055.44;;;2.66;100.00
70206;BME280;57593;55.896;37.396;2023-02-01T02:00:50;98048.22;;;2.72;100.00
70206;BME280;57593;55.896;37.396;2023-02-01T02:01:21;98050.06;;;2.71;100.00
70206;BME280;57593;55.896;37.396;2023-02-01T02:01:52;98059.88;;;2.74;100.00
70206;BME280;57593;55.896;37.396;2023-02-01T02:02:23;98063.84;;;2.80;100.00
70206;BME280;57593;55.896;37.396;2023-02-01T02:02:59;98057.44;;;2.78;100.00
70206;BME280;57593;55.896;37.396;2023-02-01T02:03:50;98057.75;;;2.59;100.00
70206;BME280;57593;55.896;37.396;2023-02-01T02:04:22;98059.59;;;2.67;100.00
70206;BME280;57593;55.896;37.396;2023-02-01T02:04:54;98059.59;;;2.67;100.00
70206;BME280;57593;55.896;37.396;2023-02-01T02:05:24;98063.88;;;2.72;100.00
70206;BME280;57593;55.896;37.396;2023-02-01T02:05:58;98061.41;;;2.66;100.00
70206;BME280;57593;55.896;37.396;2023-02-01T02:07:09;98052.97;;;2.78;100.00
70206;BME280;57593;55.896;37.396;2023-02-01T02:07:44;98055.13;;;2.76;100.00
70206;BME280;57593;55.896;37.396;2023-02-01T02:08:17;98062.31;;;2.79;100.00
70206;BME280;57593;55.896;37.396;2023-02-01T02:08:48;98061.09;;;2.85;100.00
70206;BME280;57593;55.896;37.396;2023-02-01T02:09:19;98060.47;;;2.88;100.00
70206;BME280;57593;55.896;37.396;2023-02-01T02:09:49;98057.69;;;3.02;100.00
70206;BME280;57593;55.896;37.396;2023-02-01T02:10:21;98049.38;;;3.00;100.00
70206;BME280;57593;55.896;37.396;2023-02-01T02:11:14;98058.63;;;2.89;100.00
70206;BME280;57593;55.896;37.396;2023-02-01T02:11:46;98065.50;;;2.94;100.00
70206;BME280;57593;55.896;37.396;2023-02-01T02:12:17;98056.78;;;2.90;100.00
70206;BME280;57593;55.896;37.396;2023-02-01T02:12:48;98064.91;;;2.88;100.00
70206;BME280;57593;55.896;37.396;2023-02-01T02:13:19;98057.72;;;2.76;100.00
70206;BME280;57593;55.896;37.396;2023-02-01T02:13:52;98057.69;;;2.85;100.00
70206;BME280;57593;55.896;37.396;2023-02-01T02:14:25;98057.38;;;2.86;100.00
70206;BME280;57593;55.896;37.396;2023-02-01T02:15:17;98057.88;;;2.88;100.00
70206;BME280;57593;55.896;37.396;2023-02-01T02:17:46;98065.56;;;2.67;100.00
70206;BME280;57593;55.896;37.396;2023-02-01T02:19:38;98066.34;;;2.59;100.00
70206;BME280;57593;55.896;37.396;2023-02-01T02:23:37;98070.03;;;2.41;100.00
70206;BME280;57593;55.896;37.396;2023-02-01T02:26:56;98068.50;;;2.22;100.00
70206;BME280;57593;55.896;37.396;2023-02-01T02:31:58;98070.47;;;2.43;100.00
70206;BME280;57593;55.896;37.396;2023-02-01T02:32:52;98069.28;;;2.40;100.00
70206;BME280;57593;55.896;37.396;2023-02-01T02:37:39;98065.25;;;2.16;100.00
70206;BME280;57593;55.896;37.396;2023-02-01T02:39:14;98065.88;;;2.13;100.00
70206;BME280;57593;55.896;37.396;2023-02-01T02:40:49;98072.16;;;2.12;100.00
70206;BME280;57593;55.896;37.396;2023-02-01T02:42:27;98077.53;;;2.25;100.00
70206;BME280;57593;55.896;37.396;2023-02-01T02:43:23;98071.69;;;2.37;100.00
70206;BME280;57593;55.896;37.396;2023-02-01T02:44:42;98077.69;;;2.28;100.00
70206;BME280;57593;55.896;37.396;2023-02-01T02:45:49;98078.28;;;2.16;100.00
70206;BME280;57593;55.896;37.396;2023-02-01T02:46:46;98064.50;;;2.16;100.00
70206;BME280;57593;55.896;37.396;2023-02-01T02:48:32;98081.34;;;2.27;100.00
70206;BME280;57593;55.896;37.396;2023-02-01T02:49:28;98068.81;;;2.29;100.00
70206;BME280;57593;55.896;37.396;2023-02-01T02:50:22;98076.59;;;2.21;100.00
70206;BME280;57593;55.896;37.396;2023-02-01T02:51:28;98080.75;;;2.30;100.00
70206;BME280;57593;55.896;37.396;2023-02-01T02:52:19;98082.44;;;2.26;100.00
70206;BME280;57593;55.896;37.396;2023-02-01T02:54:06;98074.94;;;2.25;100.00
70206;BME280;57593;55.896;37.396;2023-02-01T02:54:39;98069.41;;;2.18;100.00
70206;BME280;57593;55.896;37.396;2023-02-01T02:55:18;98086.72;;;2.05;100.00
70206;BME280;57593;55.896;37.396;2023-02-01T02:55:51;98079.81;;;2.09;100.00
70206;BME280;57593;55.896;37.396;2023-02-01T02:56:24;98074.16;;;2.15;100.00
70206;BME280;57593;55.896;37.396;2023-02-01T02:57:19;98083.50;;;2.08;100.00
70206;BME280;57593;55.896;37.396;2023-02-01T02:58:10;98077.03;;;2.05;100.00
70206;BME280;57593;55.896;37.396;2023-02-01T02:59:02;98074.78;;;2.12;100.00
70206;BME280;57593;55.896;37.396;2023-02-01T02:59:52;98080.56;;;2.18;100.00
70206;BME280;57593;55.896;37.396;2023-02-01T03:00:42;98084.72;;;2.19;100.00
70206;BME280;57593;55.896;37.396;2023-02-01T03:01:33;98085.19;;;2.30;100.00
70206;BME280;57593;55.896;37.396;2023-02-01T03:02:23;98081.38;;;2.36;100.00
70206;BME280;57593;55.896;37.396;2023-02-01T03:03:14;98086.13;;;2.43;100.00
70206;BME280;57593;55.896;37.396;2023-02-01T03:04:03;98082.31;;;2.40;100.00
70206;BME280;57593;55.896;37.396;2023-02-01T03:04:42;98083.34;;;2.22;100.00
70206;BME280;57593;55.896;37.396;2023-02-01T03:05:13;98085.97;;;2.22;100.00
70206;BME280;57593;55.896;37.396;2023-02-01T03:05:48;98080.75;;;2.39;100.00
70206;BME280;57593;55.896;37.396;2023-02-01T03:06:24;98079.06;;;2.34;100.00
70206;BME280;57593;55.896;37.396;2023-02-01T03:06:56;98079.06;;;2.34;100.00
70206;BME280;57593;55.896;37.396;2023-02-01T03:08:09;98079.53;;;2.37;100.00
70206;BME280;57593;55.896;37.396;2023-02-01T03:08:40;98077.53;;;2.42;100.00
70206;BME280;57593;55.896;37.396;2023-02-01T03:09:21;98082.28;;;2.49;100.00
70206;BME280;57593;55.896;37.396;2023-02-01T03:09:52;98078.91;;;2.48;100.00
70206;BME280;57593;55.896;37.396;2023-02-01T03:10:42;98082.75;;;2.42;100.00
70206;BME280;57593;55.896;37.396;2023-02-01T03:11:15;98082.13;;;2.45;100.00
70206;BME280;57593;55.896;37.396;2023-02-01T03:11:47;98079.53;;;2.37;100.00
70206;BME280;57593;55.896;37.396;2023-02-01T03:12:40;98082.31;;;2.40;100.00
70206;BME280;57593;55.896;37.396;2023-02-01T03:13:46;98080.13;;;2.60;100.00
70206;BME280;57593;55.896;37.396;2023-02-01T03:14:21;98079.81;;;2.61;100.00
70206;BME280;57593;55.896;37.396;2023-02-01T03:14:57;98075.09;;;2.55;100.00
70206;BME280;57593;55.896;37.396;2023-02-01T03:15:42;98073.84;;;2.61;100.00
70206;BME280;57593;55.896;37.396;2023-02-01T03:17:03;98088.41;;;2.53;100.00
70206;BME280;57593;55.896;37.396;2023-02-01T03:17:39;98085.66;;;2.58;100.00
70206;BME280;57593;55.896;37.396;2023-02-01T03:18:43;98077.06;;;2.58;100.00
70206;BME280;57593;55.896;37.396;2023-02-01T03:19:37;98083.22;;;2.53;100.00
70206;BME280;57593;55.896;37.396;2023-02-01T03:20:10;98079.84;;;2.44;100.00
70206;BME280;57593;55.896;37.396;2023-02-01T03:20:48;98080.00;;;2.39;100.00
70206;BME280;57593;55.896;37.396;2023-02-01T03:21:27;98082.13;;;2.28;100.00
70206;BME280;57593;55.896;37.396;2023-02-01T03:22:07;98088.72;;;2.34;100.00
70206;BME280;57593;55.896;37.396;2023-02-01T03:22:40;98078.91;;;2.31;100.00
70206;BME280;57593;55.896;37.396;2023-02-01T03:23:15;98082.59;;;2.30;100.00
70206;BME280;57593;55.896;37.396;2023-02-01T03:23:49;98087.50;;;2.40;100.00
70206;BME280;57593;55.896;37.396;2023-02-01T03:24:25;98089.03;;;2.50;100.00
70206;BME280;57593;55.896;37.396;2023-02-01T03:25:12;98085.19;;;2.56;100.00
70206;BME280;57593;55.896;37.396;2023-02-01T03:25:47;98091.47;;;2.55;100.00
70206;BME280;57593;55.896;37.396;2023-02-01T03:26:20;98084.44;;;2.56;100.00
70206;BME280;57593;55.896;37.396;2023-02-01T03:26:55;98086.13;;;2.60;100.00
70206;BME280;57593;55.896;37.396;2023-02-01T03:27:32;98075.69;;;2.43;100.00